sensor_id;sensor_type;location;lat;lon;timestamp;pressure;altitude;pressure_sealevel;temperature;humidity
68141;BME280;54941;52.220;104.306;2023-08-20T00:00:00;95994.69;;;16.67;67.33
68141;BME280;54941;52.220;104.306;2023-08-20T00:02:31;96003.81;;;16.10;69.15
68141;BME280;54941;52.220;104.306;2023-08-20T00:04:58;96006.44;;;16.46;65.51
68141;BME280;54941;52.220;104.306;2023-08-20T00:07:26;96009.50;;;16.02;68.04
68141;BME280;54941;52.220;104.306;2023-08-20T00:09:55;96003.19;;;16.22;66.90
68141;BME280;54941;52.220;104.306;2023-08-20T00:12:20;96001.72;;;18.62;60.61
68141;BME280;54941;52.220;104.306;2023-08-20T00:14:54;96004.78;;;19.59;55.09
68141;BME280;54941;52.220;104.306;2023-08-20T00:17:22;96009.75;;;18.92;57.18
68141;BME280;54941;52.220;104.306;2023-08-20T00:19:49;96006.75;;;19.12;55.97
68141;BME280;54941;52.220;104.306;2023-08-20T00:22:15;96006.31;;;20.18;53.56
68141;BME280;54941;52.220;104.306;2023-08-20T00:24:42;96004.28;;;21.28;50.69
68141;BME280;54941;52.220;104.306;2023-08-20T00:27:09;95998.69;;;21.57;48.89
68141;BME280;54941;52.220;104.306;2023-08-20T00:29:35;96002.63;;;21.89;47.09
68141;BME280;54941;52.220;104.306;2023-08-20T00:32:01;96008.03;;;21.38;48.59
68141;BME280;54941;52.220;104.306;2023-08-20T00:34:29;96002.44;;;21.41;48.06
68141;BME280;54941;52.220;104.306;2023-08-20T00:36:56;96009.13;;;20.44;51.60
68141;BME280;54941;52.220;104.306;2023-08-20T00:39:22;96018.06;;;20.03;53.32
68141;BME280;54941;52.220;104.306;2023-08-20T00:41:48;96018.53;;;19.24;54.91
68141;BME280;54941;52.220;104.306;2023-08-20T00:44:14;96014.19;;;19.07;56.32
68141;BME280;54941;52.220;104.306;2023-08-20T00:46:41;96020.56;;;19.92;54.09
68141;BME280;54941;52.220;104.306;2023-08-20T00:49:07;96020.06;;;19.28;53.78
68141;BME280;54941;52.220;104.306;2023-08-20T00:51:35;96021.22;;;18.80;55.83
68141;BME280;54941;52.220;104.306;2023-08-20T00:54:02;96025.31;;;18.55;57.41
68141;BME280;54941;52.220;104.306;2023-08-20T00:56:29;96026.66;;;18.62;57.99
68141;BME280;54941;52.220;104.306;2023-08-20T00:58:55;96016.00;;;21.78;47.76
68141;BME280;54941;52.220;104.306;2023-08-20T01:01:22;96010.91;;;21.22;49.57
68141;BME280;54941;52.220;104.306;2023-08-20T01:03:48;96011.56;;;21.13;50.29
68141;BME280;54941;52.220;104.306;2023-08-20T01:06:22;96008.25;;;20.70;51.62
68141;BME280;54941;52.220;104.306;2023-08-20T01:08:56;96017.06;;;19.33;55.41
68141;BME280;54941;52.220;104.306;2023-08-20T01:11:30;96020.38;;;19.66;54.92
68141;BME280;54941;52.220;104.306;2023-08-20T01:13:59;96015.84;;;19.38;56.52
68141;BME280;54941;52.220;104.306;2023-08-20T01:16:26;96014.94;;;19.09;56.83
68141;BME280;54941;52.220;104.306;2023-08-20T01:18:52;96008.47;;;20.26;52.49
68141;BME280;54941;52.220;104.306;2023-08-20T01:21:26;96003.84;;;20.69;50.02
68141;BME280;54941;52.220;104.306;2023-08-20T01:24:13;96013.06;;;19.54;53.83
68141;BME280;54941;52.220;104.306;2023-08-20T01:26:56;96010.31;;;19.84;52.81
68141;BME280;54941;52.220;104.306;2023-08-20T01:29:28;96012.88;;;19.86;52.52
68141;BME280;54941;52.220;104.306;2023-08-20T01:31:54;96006.84;;;20.23;51.67
68141;BME280;54941;52.220;104.306;2023-08-20T01:34:22;96000.50;;;20.38;52.39
68141;BME280;54941;52.220;104.306;2023-08-20T01:36:48;96013.66;;;19.88;53.20
68141;BME280;54941;52.220;104.306;2023-08-20T01:39:15;96006.69;;;19.71;54.03
68141;BME280;54941;52.220;104.306;2023-08-20T01:41:41;96010.91;;;19.61;53.56
68141;BME280;54941;52.220;104.306;2023-08-20T01:44:07;96005.84;;;19.70;53.63
68141;BME280;54941;52.220;104.306;2023-08-20T01:46:35;96007.16;;;19.92;52.46
68141;BME280;54941;52.220;104.306;2023-08-20T01:49:01;96004.31;;;18.93;57.13
68141;BME280;54941;52.220;104.306;2023-08-20T01:51:28;96010.94;;;19.16;56.56
68141;BME280;54941;52.220;104.306;2023-08-20T01:53:54;96004.34;;;19.08;56.15
68141;BME280;54941;52.220;104.306;2023-08-20T01:56:20;96005.81;;;19.42;54.43
68141;BME280;54941;52.220;104.306;2023-08-20T01:58:46;95995.69;;;20.83;49.96
68141;BME280;54941;52.220;104.306;2023-08-20T02:01:13;96002.84;;;19.75;52.54
68141;BME280;54941;52.220;104.306;2023-08-20T02:03:40;96001.41;;;19.41;55.13
68141;BME280;54941;52.220;104.306;2023-08-20T02:06:07;96002.78;;;20.18;53.10
68141;BME280;54941;52.220;104.306;2023-08-20T02:08:33;96001.78;;;19.92;52.53
68141;BME280;54941;52.220;104.306;2023-08-20T02:11:03;96002.16;;;18.70;55.56
68141;BME280;54941;52.220;104.306;2023-08-20T02:13:30;96011.94;;;18.55;56.07
68141;BME280;54941;52.220;104.306;2023-08-20T02:15:58;96007.81;;;19.38;54.60
68141;BME280;54941;52.220;104.306;2023-08-20T02:18:46;96003.19;;;20.38;52.23
68141;BME280;54941;52.220;104.306;2023-08-20T02:21:13;96015.22;;;19.63;52.41
68141;BME280;54941;52.220;104.306;2023-08-20T02:23:39;96008.59;;;19.83;53.70
68141;BME280;54941;52.220;104.306;2023-08-20T02:26:05;96006.34;;;19.04;54.31
68141;BME280;54941;52.220;104.306;2023-08-20T02:28:32;96009.25;;;18.85;54.74
68141;BME280;54941;52.220;104.306;2023-08-20T02:30:58;96007.22;;;19.05;54.15
68141;BME280;54941;52.220;104.306;2023-08-20T02:33:24;95999.94;;;20.33;51.86
68141;BME280;54941;52.220;104.306;2023-08-20T02:35:52;96001.06;;;22.23;47.17
68141;BME280;54941;52.220;104.306;2023-08-20T02:38:18;95996.53;;;21.49;48.18
68141;BME280;54941;52.220;104.306;2023-08-20T02:40:44;96006.84;;;20.23;52.07
68141;BME280;54941;52.220;104.306;2023-08-20T02:43:11;95995.09;;;20.53;51.23
68141;BME280;54941;52.220;104.306;2023-08-20T02:45:41;95988.72;;;22.08;47.37
68141;BME280;54941;52.220;104.306;2023-08-20T02:48:07;95993.81;;;22.84;45.65
68141;BME280;54941;52.220;104.306;2023-08-20T02:50:33;95995.22;;;21.80;46.82
68141;BME280;54941;52.220;104.306;2023-08-20T02:53:01;96003.19;;;20.38;50.16
68141;BME280;54941;52.220;104.306;2023-08-20T02:55:28;95996.19;;;21.79;50.27
68141;BME280;54941;52.220;104.306;2023-08-20T02:57:55;95986.03;;;23.15;47.45
68141;BME280;54941;52.220;104.306;2023-08-20T03:00:21;95986.72;;;23.41;44.72
68141;BME280;54941;52.220;104.306;2023-08-20T03:02:47;95985.66;;;22.49;50.45
68141;BME280;54941;52.220;104.306;2023-08-20T03:05:13;95980.22;;;23.43;46.45
68141;BME280;54941;52.220;104.306;2023-08-20T03:07:40;95986.25;;;22.77;47.19
68141;BME280;54941;52.220;104.306;2023-08-20T03:10:08;95976.13;;;23.15;44.80
68141;BME280;54941;52.220;104.306;2023-08-20T03:12:34;95977.75;;;23.29;43.64
68141;BME280;54941;52.220;104.306;2023-08-20T03:15:00;95972.91;;;22.75;46.85
68141;BME280;54941;52.220;104.306;2023-08-20T03:17:27;95970.78;;;22.67;44.73
68141;BME280;54941;52.220;104.306;2023-08-20T03:19:57;95967.00;;;22.59;44.39
68141;BME280;54941;52.220;104.306;2023-08-20T03:22:25;95956.06;;;23.31;41.42
68141;BME280;54941;52.220;104.306;2023-08-20T03:24:51;95954.97;;;24.66;38.61
68141;BME280;54941;52.220;104.306;2023-08-20T03:27:20;95962.22;;;22.62;43.12
68141;BME280;54941;52.220;104.306;2023-08-20T03:29:46;95948.59;;;24.12;39.27
68141;BME280;54941;52.220;104.306;2023-08-20T03:32:12;95956.94;;;22.85;42.39
68141;BME280;54941;52.220;104.306;2023-08-20T03:34:39;95956.72;;;22.64;42.47
68141;BME280;54941;52.220;104.306;2023-08-20T03:37:07;95941.22;;;24.14;40.78
68141;BME280;54941;52.220;104.306;2023-08-20T03:39:33;95953.97;;;21.30;44.87
68141;BME280;54941;52.220;104.306;2023-08-20T03:41:59;95952.75;;;20.83;46.92
68141;BME280;54941;52.220;104.306;2023-08-20T03:44:27;95950.91;;;20.71;46.42
68141;BME280;54941;52.220;104.306;2023-08-20T03:46:53;95952.41;;;19.81;49.55
68141;BME280;54941;52.220;104.306;2023-08-20T03:49:20;95957.75;;;19.81;50.23
68141;BME280;54941;52.220;104.306;2023-08-20T03:51:46;95966.38;;;19.15;51.73
68141;BME280;54941;52.220;104.306;2023-08-20T03:54:12;95964.47;;;19.17;52.20
68141;BME280;54941;52.220;104.306;2023-08-20T03:56:38;95946.47;;;19.76;51.36
68141;BME280;54941;52.220;104.306;2023-08-20T03:59:05;95939.75;;;20.64;49.95
68141;BME280;54941;52.220;104.306;2023-08-20T04:01:33;95945.84;;;20.54;48.39
68141;BME280;54941;52.220;104.306;2023-08-20T04:04:00;95944.09;;;19.99;49.01
68141;BME280;54941;52.220;104.306;2023-08-20T04:06:26;95942.16;;;20.15;53.55
68141;BME280;54941;52.220;104.306;2023-08-20T04:08:52;95936.47;;;20.47;49.77
68141;BME280;54941;52.220;104.306;2023-08-20T04:11:18;95940.00;;;20.47;52.61
68141;BME280;54941;52.220;104.306;2023-08-20T04:13:45;95934.28;;;20.39;51.91
68141;BME280;54941;52.220;104.306;2023-08-20T04:16:11;95936.44;;;19.51;48.86
68141;BME280;54941;52.220;104.306;2023-08-20T04:18:39;95944.25;;;18.69;52.19
68141;BME280;54941;52.220;104.306;2023-08-20T04:21:06;95944.66;;;18.91;51.05
68141;BME280;54941;52.220;104.306;2023-08-20T04:23:32;95940.97;;;18.34;53.15
68141;BME280;54941;52.220;104.306;2023-08-20T04:25:58;95947.97;;;18.51;53.96
68141;BME280;54941;52.220;104.306;2023-08-20T04:28:24;95945.22;;;19.68;49.25
68141;BME280;54941;52.220;104.306;2023-08-20T04:30:52;95931.94;;;21.00;45.74
68141;BME280;54941;52.220;104.306;2023-08-20T04:33:18;95929.84;;;20.65;47.26
68141;BME280;54941;52.220;104.306;2023-08-20T04:35:48;95934.50;;;21.14;45.91
68141;BME280;54941;52.220;104.306;2023-08-20T04:38:14;95923.81;;;21.63;44.30
68141;BME280;54941;52.220;104.306;2023-08-20T04:40:40;95930.34;;;20.18;47.17
68141;BME280;54941;52.220;104.306;2023-08-20T04:43:07;95928.16;;;20.10;47.79
68141;BME280;54941;52.220;104.306;2023-08-20T04:45:33;95926.56;;;19.80;48.88
68141;BME280;54941;52.220;104.306;2023-08-20T04:47:59;95927.53;;;20.06;48.05
68141;BME280;54941;52.220;104.306;2023-08-20T04:50:25;95929.41;;;19.77;48.66
68141;BME280;54941;52.220;104.306;2023-08-20T04:52:53;95917.28;;;20.53;47.41
68141;BME280;54941;52.220;104.306;2023-08-20T04:55:19;95915.16;;;20.71;46.19
68141;BME280;54941;52.220;104.306;2023-08-20T04:57:46;95911.94;;;20.78;46.17
68141;BME280;54941;52.220;104.306;2023-08-20T05:00:12;95912.91;;;21.28;46.47
68141;BME280;54941;52.220;104.306;2023-08-20T05:02:39;95906.56;;;21.54;45.36
68141;BME280;54941;52.220;104.306;2023-08-20T05:05:06;95907.25;;;21.33;45.21
68141;BME280;54941;52.220;104.306;2023-08-20T05:07:32;95904.72;;;20.53;47.07
68141;BME280;54941;52.220;104.306;2023-08-20T05:10:00;95909.25;;;21.54;46.29
68141;BME280;54941;52.220;104.306;2023-08-20T05:12:26;95907.31;;;21.57;45.26
68141;BME280;54941;52.220;104.306;2023-08-20T05:14:52;95903.56;;;21.83;43.60
68141;BME280;54941;52.220;104.306;2023-08-20T05:17:18;95902.84;;;21.32;43.16
68141;BME280;54941;52.220;104.306;2023-08-20T05:19:45;95901.28;;;20.24;46.19
68141;BME280;54941;52.220;104.306;2023-08-20T05:22:11;95904.25;;;20.47;44.69
68141;BME280;54941;52.220;104.306;2023-08-20T05:24:37;95903.66;;;20.02;46.72
68141;BME280;54941;52.220;104.306;2023-08-20T05:27:06;95896.97;;;19.68;47.22
68141;BME280;54941;52.220;104.306;2023-08-20T05:29:33;95905.72;;;19.43;47.44
68141;BME280;54941;52.220;104.306;2023-08-20T05:32:00;95909.19;;;19.31;47.88
68141;BME280;54941;52.220;104.306;2023-08-20T05:34:26;95900.78;;;18.80;49.45
68141;BME280;54941;52.220;104.306;2023-08-20T05:36:52;95901.28;;;18.26;51.50
68141;BME280;54941;52.220;104.306;2023-08-20T05:39:18;95901.19;;;18.58;54.77
68141;BME280;54941;52.220;104.306;2023-08-20T05:41:45;95890.44;;;19.45;52.25
68141;BME280;54941;52.220;104.306;2023-08-20T05:44:12;95888.06;;;19.81;48.79
68141;BME280;54941;52.220;104.306;2023-08-20T05:46:39;95882.50;;;19.85;48.00
68141;BME280;54941;52.220;104.306;2023-08-20T05:49:05;95874.69;;;20.34;47.70
68141;BME280;54941;52.220;104.306;2023-08-20T05:51:31;95873.16;;;20.82;44.68
68141;BME280;54941;52.220;104.306;2023-08-20T05:53:57;95865.22;;;20.81;44.84
68141;BME280;54941;52.220;104.306;2023-08-20T05:56:23;95876.09;;;20.00;46.48
68141;BME280;54941;52.220;104.306;2023-08-20T05:58:50;95874.28;;;19.73;48.79
68141;BME280;54941;52.220;104.306;2023-08-20T06:01:18;95867.59;;;19.66;48.75
68141;BME280;54941;52.220;104.306;2023-08-20T06:03:44;95863.00;;;20.35;46.90
68141;BME280;54941;52.220;104.306;2023-08-20T06:06:10;95855.56;;;20.91;46.30
68141;BME280;54941;52.220;104.306;2023-08-20T06:08:36;95852.53;;;20.83;46.74
68141;BME280;54941;52.220;104.306;2023-08-20T06:11:02;95845.56;;;20.55;46.61
68141;BME280;54941;52.220;104.306;2023-08-20T06:13:29;95851.94;;;20.27;47.48
68141;BME280;54941;52.220;104.306;2023-08-20T06:15:55;95852.28;;;19.95;48.76
68141;BME280;54941;52.220;104.306;2023-08-20T06:18:23;95850.56;;;19.94;48.82
68141;BME280;54941;52.220;104.306;2023-08-20T06:20:49;95853.75;;;19.87;48.58
68141;BME280;54941;52.220;104.306;2023-08-20T06:23:15;95845.53;;;20.02;47.95
68141;BME280;54941;52.220;104.306;2023-08-20T06:25:42;95845.31;;;19.93;47.64
68141;BME280;54941;52.220;104.306;2023-08-20T06:28:08;95844.25;;;19.54;48.83
68141;BME280;54941;52.220;104.306;2023-08-20T06:30:35;95836.84;;;19.45;47.90
68141;BME280;54941;52.220;104.306;2023-08-20T06:33:01;95838.81;;;19.70;47.39
68141;BME280;54941;52.220;104.306;2023-08-20T06:35:29;95837.03;;;19.42;48.81
68141;BME280;54941;52.220;104.306;2023-08-20T06:37:55;95840.38;;;19.31;49.67
68141;BME280;54941;52.220;104.306;2023-08-20T06:40:21;95828.13;;;19.56;49.04
68141;BME280;54941;52.220;104.306;2023-08-20T06:42:48;95830.19;;;19.92;49.73
68141;BME280;54941;52.220;104.306;2023-08-20T06:45:14;95822.53;;;20.25;46.93
68141;BME280;54941;52.220;104.306;2023-08-20T06:47:40;95828.59;;;20.02;48.36
68141;BME280;54941;52.220;104.306;2023-08-20T06:50:07;95830.97;;;20.06;48.21
68141;BME280;54941;52.220;104.306;2023-08-20T06:52:35;95831.84;;;20.07;49.43
68141;BME280;54941;52.220;104.306;2023-08-20T06:55:01;95825.63;;;20.19;48.59
68141;BME280;54941;52.220;104.306;2023-08-20T06:57:29;95832.94;;;20.17;48.74
68141;BME280;54941;52.220;104.306;2023-08-20T06:59:55;95830.50;;;20.39;47.88
68141;BME280;54941;52.220;104.306;2023-08-20T07:02:22;95826.53;;;19.66;48.78
68141;BME280;54941;52.220;104.306;2023-08-20T07:04:48;95829.91;;;19.69;46.36
68141;BME280;54941;52.220;104.306;2023-08-20T07:07:14;95819.53;;;19.36;48.14
68141;BME280;54941;52.220;104.306;2023-08-20T07:09:42;95819.78;;;20.00;46.76
68141;BME280;54941;52.220;104.306;2023-08-20T07:12:08;95811.56;;;20.03;45.96
68141;BME280;54941;52.220;104.306;2023-08-20T07:14:35;95813.19;;;20.18;47.09
68141;BME280;54941;52.220;104.306;2023-08-20T07:17:01;95806.75;;;20.33;46.84
68141;BME280;54941;52.220;104.306;2023-08-20T07:19:27;95807.22;;;20.40;42.58
68141;BME280;54941;52.220;104.306;2023-08-20T07:21:53;95809.50;;;19.94;43.65
68141;BME280;54941;52.220;104.306;2023-08-20T07:24:20;95805.34;;;19.75;44.59
68141;BME280;54941;52.220;104.306;2023-08-20T07:26:48;95793.78;;;19.48;46.26
68141;BME280;54941;52.220;104.306;2023-08-20T07:29:15;95797.38;;;20.01;46.85
68141;BME280;54941;52.220;104.306;2023-08-20T07:31:41;95783.66;;;19.93;46.48
68141;BME280;54941;52.220;104.306;2023-08-20T07:34:07;95786.91;;;19.71;47.20
68141;BME280;54941;52.220;104.306;2023-08-20T07:36:33;95794.75;;;19.74;45.84
68141;BME280;54941;52.220;104.306;2023-08-20T07:39:00;95795.16;;;19.27;46.84
68141;BME280;54941;52.220;104.306;2023-08-20T07:41:26;95794.06;;;19.58;47.67
68141;BME280;54941;52.220;104.306;2023-08-20T07:43:54;95789.75;;;19.95;45.83
68141;BME280;54941;52.220;104.306;2023-08-20T07:46:20;95790.88;;;20.05;46.36
68141;BME280;54941;52.220;104.306;2023-08-20T07:48:47;95796.94;;;19.81;46.31
68141;BME280;54941;52.220;104.306;2023-08-20T07:51:13;95801.84;;;19.88;45.50
68141;BME280;54941;52.220;104.306;2023-08-20T07:53:39;95805.41;;;19.88;43.86
68141;BME280;54941;52.220;104.306;2023-08-20T07:56:06;95800.03;;;19.88;45.11
68141;BME280;54941;52.220;104.306;2023-08-20T07:58:32;95805.91;;;20.20;45.15
68141;BME280;54941;52.220;104.306;2023-08-20T08:01:00;95805.28;;;20.29;44.59
68141;BME280;54941;52.220;104.306;2023-08-20T08:03:26;95809.69;;;19.91;45.84
68141;BME280;54941;52.220;104.306;2023-08-20T08:05:53;95803.31;;;19.79;44.44
68141;BME280;54941;52.220;104.306;2023-08-20T08:08:20;95801.69;;;20.03;43.13
68141;BME280;54941;52.220;104.306;2023-08-20T08:10:46;95804.66;;;19.86;43.88
68141;BME280;54941;52.220;104.306;2023-08-20T08:13:13;95796.88;;;20.34;44.34
68141;BME280;54941;52.220;104.306;2023-08-20T08:15:40;95790.25;;;20.39;43.17
68141;BME280;54941;52.220;104.306;2023-08-20T08:18:08;95793.13;;;20.24;43.71
68141;BME280;54941;52.220;104.306;2023-08-20T08:20:34;95797.50;;;19.99;43.09
68141;BME280;54941;52.220;104.306;2023-08-20T08:23:01;95799.97;;;19.63;44.31
68141;BME280;54941;52.220;104.306;2023-08-20T08:25:27;95791.59;;;19.67;41.98
68141;BME280;54941;52.220;104.306;2023-08-20T08:27:54;95796.53;;;19.61;42.61
68141;BME280;54941;52.220;104.306;2023-08-20T08:30:20;95797.06;;;19.93;41.97
68141;BME280;54941;52.220;104.306;2023-08-20T08:32:47;95801.38;;;19.54;41.15
68141;BME280;54941;52.220;104.306;2023-08-20T08:35:15;95792.34;;;19.42;41.06
68141;BME280;54941;52.220;104.306;2023-08-20T08:37:41;95798.28;;;19.74;39.93
68141;BME280;54941;52.220;104.306;2023-08-20T08:40:08;95805.41;;;19.88;41.42
68141;BME280;54941;52.220;104.306;2023-08-20T08:42:35;95811.09;;;19.42;42.38
68141;BME280;54941;52.220;104.306;2023-08-20T08:45:02;95810.34;;;19.40;42.14
68141;BME280;54941;52.220;104.306;2023-08-20T08:47:31;95803.16;;;19.82;41.61
68141;BME280;54941;52.220;104.306;2023-08-20T08:49:58;95809.19;;;19.98;43.18
68141;BME280;54941;52.220;104.306;2023-08-20T08:52:26;95811.59;;;20.16;42.57
68141;BME280;54941;52.220;104.306;2023-08-20T08:54:53;95811.09;;;19.96;43.39
68141;BME280;54941;52.220;104.306;2023-08-20T08:57:19;95809.31;;;19.70;42.26
68141;BME280;54941;52.220;104.306;2023-08-20T08:59:45;95802.19;;;19.83;42.57
68141;BME280;54941;52.220;104.306;2023-08-20T09:02:12;95807.28;;;19.73;42.54
68141;BME280;54941;52.220;104.306;2023-08-20T09:04:39;95811.22;;;19.95;41.21
68141;BME280;54941;52.220;104.306;2023-08-20T09:07:05;95809.00;;;19.74;41.70
68141;BME280;54941;52.220;104.306;2023-08-20T09:09:42;95808.34;;;19.71;42.88
68141;BME280;54941;52.220;104.306;2023-08-20T09:12:12;95812.00;;;19.70;41.69
68141;BME280;54941;52.220;104.306;2023-08-20T09:14:39;95819.00;;;19.85;41.58
68141;BME280;54941;52.220;104.306;2023-08-20T09:17:05;95816.97;;;19.89;42.04
68141;BME280;54941;52.220;104.306;2023-08-20T09:19:35;95823.75;;;19.94;45.03
68141;BME280;54941;52.220;104.306;2023-08-20T09:22:02;95820.78;;;19.45;45.39
68141;BME280;54941;52.220;104.306;2023-08-20T09:24:33;95827.44;;;19.52;46.17
68141;BME280;54941;52.220;104.306;2023-08-20T09:27:03;95830.97;;;19.11;46.60
68141;BME280;54941;52.220;104.306;2023-08-20T09:29:32;95830.97;;;18.97;47.33
68141;BME280;54941;52.220;104.306;2023-08-20T09:32:01;95830.41;;;18.92;47.23
68141;BME280;54941;52.220;104.306;2023-08-20T09:34:36;95824.63;;;19.27;47.32
68141;BME280;54941;52.220;104.306;2023-08-20T09:37:02;95830.69;;;19.43;47.14
68141;BME280;54941;52.220;104.306;2023-08-20T09:39:29;95829.56;;;19.33;47.56
68141;BME280;54941;52.220;104.306;2023-08-20T09:41:55;95830.50;;;19.05;46.84
68141;BME280;54941;52.220;104.306;2023-08-20T09:44:25;95841.31;;;19.03;45.94
68141;BME280;54941;52.220;104.306;2023-08-20T09:46:54;95831.44;;;19.18;45.94
68141;BME280;54941;52.220;104.306;2023-08-20T09:49:22;95837.13;;;18.99;46.23
68141;BME280;54941;52.220;104.306;2023-08-20T09:51:51;95842.75;;;18.94;44.24
68141;BME280;54941;52.220;104.306;2023-08-20T09:54:23;95841.22;;;19.05;44.59
68141;BME280;54941;52.220;104.306;2023-08-20T09:56:54;95844.94;;;19.02;44.97
68141;BME280;54941;52.220;104.306;2023-08-20T09:59:27;95851.53;;;19.11;43.63
68141;BME280;54941;52.220;104.306;2023-08-20T10:01:56;95842.78;;;19.36;43.49
68141;BME280;54941;52.220;104.306;2023-08-20T10:04:23;95845.91;;;19.42;43.02
68141;BME280;54941;52.220;104.306;2023-08-20T10:06:50;95846.59;;;19.46;43.06
68141;BME280;54941;52.220;104.306;2023-08-20T10:09:18;95846.53;;;19.74;41.67
68141;BME280;54941;52.220;104.306;2023-08-20T10:11:45;95851.81;;;19.89;41.83
68141;BME280;54941;52.220;104.306;2023-08-20T10:14:13;95847.28;;;19.76;41.26
68141;BME280;54941;52.220;104.306;2023-08-20T10:16:41;95850.38;;;19.70;40.94
68141;BME280;54941;52.220;104.306;2023-08-20T10:19:07;95838.84;;;19.83;41.38
68141;BME280;54941;52.220;104.306;2023-08-20T10:21:33;95843.75;;;19.76;41.07
68141;BME280;54941;52.220;104.306;2023-08-20T10:24:03;95847.31;;;19.89;40.61
68141;BME280;54941;52.220;104.306;2023-08-20T10:26:29;95847.44;;;19.88;42.95
68141;BME280;54941;52.220;104.306;2023-08-20T10:31:56;95848.59;;;19.01;51.15
68141;BME280;54941;52.220;104.306;2023-08-20T10:34:32;95848.50;;;18.88;49.09
68141;BME280;54941;52.220;104.306;2023-08-20T10:37:01;95848.00;;;18.82;53.11
68141;BME280;54941;52.220;104.306;2023-08-20T10:39:27;95837.88;;;18.73;53.14
68141;BME280;54941;52.220;104.306;2023-08-20T10:42:09;95846.34;;;18.06;59.09
68141;BME280;54941;52.220;104.306;2023-08-20T10:44:59;95847.25;;;17.91;62.12
68141;BME280;54941;52.220;104.306;2023-08-20T10:47:35;95842.53;;;17.81;64.66
68141;BME280;54941;52.220;104.306;2023-08-20T10:50:02;95852.34;;;17.96;64.31
68141;BME280;54941;52.220;104.306;2023-08-20T10:52:30;95852.59;;;17.91;65.15
68141;BME280;54941;52.220;104.306;2023-08-20T10:54:56;95856.34;;;18.03;65.36
68141;BME280;54941;52.220;104.306;2023-08-20T10:57:33;95861.03;;;17.99;65.44
68141;BME280;54941;52.220;104.306;2023-08-20T11:00:02;95851.78;;;17.75;66.77
68141;BME280;54941;52.220;104.306;2023-08-20T11:02:33;95857.06;;;17.91;67.12
68141;BME280;54941;52.220;104.306;2023-08-20T11:04:59;95853.13;;;17.82;67.86
68141;BME280;54941;52.220;104.306;2023-08-20T11:07:26;95858.88;;;18.06;67.60
68141;BME280;54941;52.220;104.306;2023-08-20T11:09:53;95852.03;;;18.00;65.77
68141;BME280;54941;52.220;104.306;2023-08-20T11:12:20;95851.72;;;17.91;66.26
68141;BME280;54941;52.220;104.306;2023-08-20T11:14:46;95848.06;;;18.07;64.05
68141;BME280;54941;52.220;104.306;2023-08-20T11:17:13;95858.75;;;18.07;64.16
68141;BME280;54941;52.220;104.306;2023-08-20T11:19:41;95853.81;;;18.16;63.32
68141;BME280;54941;52.220;104.306;2023-08-20T11:22:10;95854.19;;;18.10;62.69
68141;BME280;54941;52.220;104.306;2023-08-20T11:24:36;95854.00;;;18.13;60.95
68141;BME280;54941;52.220;104.306;2023-08-20T11:27:02;95855.94;;;18.39;63.31
68141;BME280;54941;52.220;104.306;2023-08-20T11:29:29;95855.72;;;18.14;64.40
68141;BME280;54941;52.220;104.306;2023-08-20T11:31:55;95865.41;;;18.00;66.13
68141;BME280;54941;52.220;104.306;2023-08-20T11:34:22;95860.19;;;17.67;66.86
68141;BME280;54941;52.220;104.306;2023-08-20T11:36:50;95860.97;;;17.54;69.84
68141;BME280;54941;52.220;104.306;2023-08-20T11:39:16;95861.34;;;17.16;72.44
68141;BME280;54941;52.220;104.306;2023-08-20T11:41:44;95861.78;;;16.75;74.55
68141;BME280;54941;52.220;104.306;2023-08-20T11:44:10;95869.34;;;16.50;76.02
68141;BME280;54941;52.220;104.306;2023-08-20T11:46:42;95869.06;;;16.21;78.00
68141;BME280;54941;52.220;104.306;2023-08-20T11:49:10;95882.53;;;16.18;78.29
68141;BME280;54941;52.220;104.306;2023-08-20T11:51:38;95884.56;;;15.96;78.38
68141;BME280;54941;52.220;104.306;2023-08-20T11:54:07;95887.50;;;15.72;79.28
68141;BME280;54941;52.220;104.306;2023-08-20T11:56:34;95890.88;;;15.40;81.17
68141;BME280;54941;52.220;104.306;2023-08-20T11:59:01;95896.91;;;15.25;81.47
68141;BME280;54941;52.220;104.306;2023-08-20T12:01:30;95898.06;;;15.00;81.57
68141;BME280;54941;52.220;104.306;2023-08-20T12:03:58;95909.59;;;14.80;82.62
68141;BME280;54941;52.220;104.306;2023-08-20T12:06:25;95906.38;;;14.74;83.01
68141;BME280;54941;52.220;104.306;2023-08-20T12:08:51;95910.78;;;14.54;83.87
68141;BME280;54941;52.220;104.306;2023-08-20T12:11:23;95910.31;;;14.45;84.30
68141;BME280;54941;52.220;104.306;2023-08-20T12:13:50;95912.97;;;14.24;83.58
68141;BME280;54941;52.220;104.306;2023-08-20T12:16:16;95927.91;;;14.07;84.30
68141;BME280;54941;52.220;104.306;2023-08-20T12:18:42;95917.69;;;13.76;85.55
68141;BME280;54941;52.220;104.306;2023-08-20T12:21:09;95927.56;;;13.72;85.57
68141;BME280;54941;52.220;104.306;2023-08-20T12:23:35;95926.50;;;13.54;85.32
68141;BME280;54941;52.220;104.306;2023-08-20T12:26:01;95936.31;;;13.30;86.66
68141;BME280;54941;52.220;104.306;2023-08-20T12:28:29;95937.50;;;13.23;86.57
68141;BME280;54941;52.220;104.306;2023-08-20T12:30:55;95939.53;;;13.15;86.73
68141;BME280;54941;52.220;104.306;2023-08-20T12:33:21;95944.31;;;13.05;87.39
68141;BME280;54941;52.220;104.306;2023-08-20T12:35:48;95948.22;;;12.97;87.04
68141;BME280;54941;52.220;104.306;2023-08-20T12:38:15;95944.91;;;12.90;86.89
68141;BME280;54941;52.220;104.306;2023-08-20T12:40:41;95951.66;;;12.75;87.57
68141;BME280;54941;52.220;104.306;2023-08-20T12:43:08;95961.16;;;12.81;87.40